sensor_id;sensor_type;location;lat;lon;timestamp;P1;durP1;ratioP1;P2;durP2;ratioP2
30378;SDS011;17168;49.164;9.060;2022-07-21T00:00:00;24.42;;;20.33;;
30378;SDS011;17168;49.164;9.060;2022-07-21T00:02:30;27.95;;;19.52;;
30378;SDS011;17168;49.164;9.060;2022-07-21T00:04:57;27.38;;;20.70;;
30378;SDS011;17168;49.164;9.060;2022-07-21T00:07:24;26.75;;;19.42;;
30378;SDS011;17168;49.164;9.060;2022-07-21T00:09:52;23.48;;;18.92;;
30378;SDS011;17168;49.164;9.060;2022-07-21T00:12:20;23.75;;;18.65;;
30378;SDS011;17168;49.164;9.060;2022-07-21T00:14:47;24.77;;;19.75;;
30378;SDS011;17168;49.164;9.060;2022-07-21T00:17:13;26.00;;;20.75;;
30378;SDS011;17168;49.164;9.060;2022-07-21T00:19:40;28.50;;;20.60;;
30378;SDS011;17168;49.164;9.060;2022-07-21T00:22:07;26.35;;;20.42;;
30378;SDS011;17168;49.164;9.060;2022-07-21T00:24:34;29.33;;;21.77;;
30378;SDS011;17168;49.164;9.060;2022-07-21T00:27:02;32.85;;;24.15;;
30378;SDS011;17168;49.164;9.060;2022-07-21T00:29:29;37.65;;;25.45;;
30378;SDS011;17168;49.164;9.060;2022-07-21T00:31:56;34.50;;;26.35;;
30378;SDS011;17168;49.164;9.060;2022-07-21T00:34:23;38.03;;;28.17;;
30378;SDS011;17168;49.164;9.060;2022-07-21T00:36:49;30.85;;;24.48;;
30378;SDS011;17168;49.164;9.060;2022-07-21T00:39:16;40.85;;;29.33;;
30378;SDS011;17168;49.164;9.060;2022-07-21T00:41:43;36.28;;;27.65;;
30378;SDS011;17168;49.164;9.060;2022-07-21T00:44:19;32.45;;;24.55;;
30378;SDS011;17168;49.164;9.060;2022-07-21T00:46:47;34.50;;;25.63;;
30378;SDS011;17168;49.164;9.060;2022-07-21T00:49:14;30.83;;;22.90;;
30378;SDS011;17168;49.164;9.060;2022-07-21T00:51:41;31.67;;;25.05;;
30378;SDS011;17168;49.164;9.060;2022-07-21T00:54:08;37.78;;;25.30;;
30378;SDS011;17168;49.164;9.060;2022-07-21T00:56:35;43.53;;;28.42;;
30378;SDS011;17168;49.164;9.060;2022-07-21T00:59:02;50.90;;;31.92;;
30378;SDS011;17168;49.164;9.060;2022-07-21T01:01:30;46.47;;;32.47;;
30378;SDS011;17168;49.164;9.060;2022-07-21T01:03:57;44.00;;;32.05;;
30378;SDS011;17168;49.164;9.060;2022-07-21T01:06:24;47.28;;;32.15;;
30378;SDS011;17168;49.164;9.060;2022-07-21T01:08:51;39.72;;;30.83;;
30378;SDS011;17168;49.164;9.060;2022-07-21T01:11:19;39.40;;;27.83;;
30378;SDS011;17168;49.164;9.060;2022-07-21T01:13:46;38.53;;;27.10;;
30378;SDS011;17168;49.164;9.060;2022-07-21T01:16:14;33.25;;;23.90;;
30378;SDS011;17168;49.164;9.060;2022-07-21T01:18:42;28.80;;;22.67;;
30378;SDS011;17168;49.164;9.060;2022-07-21T01:23:59;29.00;;;21.35;;
30378;SDS011;17168;49.164;9.060;2022-07-21T01:26:27;25.83;;;23.05;;
30378;SDS011;17168;49.164;9.060;2022-07-21T01:28:54;28.60;;;23.25;;
30378;SDS011;17168;49.164;9.060;2022-07-21T01:31:22;34.05;;;25.35;;
30378;SDS011;17168;49.164;9.060;2022-07-21T01:33:49;26.25;;;23.40;;
30378;SDS011;17168;49.164;9.060;2022-07-21T01:36:16;29.65;;;21.88;;
30378;SDS011;17168;49.164;9.060;2022-07-21T01:38:44;31.60;;;24.45;;
30378;SDS011;17168;49.164;9.060;2022-07-21T01:41:33;28.95;;;23.30;;
30378;SDS011;17168;49.164;9.060;2022-07-21T01:44:01;32.75;;;23.10;;
30378;SDS011;17168;49.164;9.060;2022-07-21T01:46:30;35.55;;;22.95;;
30378;SDS011;17168;49.164;9.060;2022-07-21T01:48:58;27.98;;;23.08;;
30378;SDS011;17168;49.164;9.060;2022-07-21T01:51:25;31.88;;;24.48;;
30378;SDS011;17168;49.164;9.060;2022-07-21T01:53:53;29.75;;;24.05;;
30378;SDS011;17168;49.164;9.060;2022-07-21T01:56:20;31.35;;;24.80;;
30378;SDS011;17168;49.164;9.060;2022-07-21T01:58:48;29.60;;;24.23;;
30378;SDS011;17168;49.164;9.060;2022-07-21T02:01:17;24.38;;;21.10;;
30378;SDS011;17168;49.164;9.060;2022-07-21T02:03:45;26.25;;;21.80;;
30378;SDS011;17168;49.164;9.060;2022-07-21T02:06:12;27.15;;;21.50;;
30378;SDS011;17168;49.164;9.060;2022-07-21T02:08:39;24.35;;;21.15;;
30378;SDS011;17168;49.164;9.060;2022-07-21T02:11:10;31.70;;;21.75;;
30378;SDS011;17168;49.164;9.060;2022-07-21T02:13:37;30.98;;;22.17;;
30378;SDS011;17168;49.164;9.060;2022-07-21T02:16:05;26.17;;;21.40;;
30378;SDS011;17168;49.164;9.060;2022-07-21T02:18:32;28.52;;;22.55;;
30378;SDS011;17168;49.164;9.060;2022-07-21T02:20:59;28.80;;;20.60;;
30378;SDS011;17168;49.164;9.060;2022-07-21T02:23:27;26.65;;;20.48;;
30378;SDS011;17168;49.164;9.060;2022-07-21T02:25:54;25.50;;;20.35;;
30378;SDS011;17168;49.164;9.060;2022-07-21T02:28:24;27.38;;;21.98;;
30378;SDS011;17168;49.164;9.060;2022-07-21T02:30:51;25.77;;;19.40;;
30378;SDS011;17168;49.164;9.060;2022-07-21T02:33:19;26.15;;;19.23;;
30378;SDS011;17168;49.164;9.060;2022-07-21T02:35:46;29.65;;;20.33;;
30378;SDS011;17168;49.164;9.060;2022-07-21T02:38:13;21.65;;;18.13;;
30378;SDS011;17168;49.164;9.060;2022-07-21T02:40:40;27.73;;;18.27;;
30378;SDS011;17168;49.164;9.060;2022-07-21T02:43:07;21.60;;;17.05;;
30378;SDS011;17168;49.164;9.060;2022-07-21T02:45:35;21.92;;;16.73;;
30378;SDS011;17168;49.164;9.060;2022-07-21T02:50:35;23.77;;;16.50;;
30378;SDS011;17168;49.164;9.060;2022-07-21T02:53:03;26.83;;;19.55;;
30378;SDS011;17168;49.164;9.060;2022-07-21T02:55:33;28.10;;;19.52;;
30378;SDS011;17168;49.164;9.060;2022-07-21T02:58:08;30.08;;;22.38;;
30378;SDS011;17168;49.164;9.060;2022-07-21T03:00:38;27.67;;;21.73;;
30378;SDS011;17168;49.164;9.060;2022-07-21T03:03:08;29.98;;;23.08;;
30378;SDS011;17168;49.164;9.060;2022-07-21T03:05:35;29.35;;;21.08;;
30378;SDS011;17168;49.164;9.060;2022-07-21T03:08:03;33.47;;;23.70;;
30378;SDS011;17168;49.164;9.060;2022-07-21T03:10:30;26.38;;;23.55;;
30378;SDS011;17168;49.164;9.060;2022-07-21T03:12:58;29.80;;;23.55;;
30378;SDS011;17168;49.164;9.060;2022-07-21T03:15:25;32.10;;;24.17;;
30378;SDS011;17168;49.164;9.060;2022-07-21T03:17:56;27.95;;;23.05;;
30378;SDS011;17168;49.164;9.060;2022-07-21T03:20:23;33.10;;;25.67;;
30378;SDS011;17168;49.164;9.060;2022-07-21T03:22:51;29.73;;;25.25;;
30378;SDS011;17168;49.164;9.060;2022-07-21T03:25:17;31.40;;;26.45;;
30378;SDS011;17168;49.164;9.060;2022-07-21T03:27:45;31.40;;;24.98;;
30378;SDS011;17168;49.164;9.060;2022-07-21T03:30:12;27.50;;;22.42;;
30378;SDS011;17168;49.164;9.060;2022-07-21T03:32:39;29.20;;;22.65;;
30378;SDS011;17168;49.164;9.060;2022-07-21T03:35:08;25.25;;;22.08;;
30378;SDS011;17168;49.164;9.060;2022-07-21T03:37:40;29.20;;;22.00;;
30378;SDS011;17168;49.164;9.060;2022-07-21T03:40:08;28.20;;;22.83;;
30378;SDS011;17168;49.164;9.060;2022-07-21T03:42:36;28.70;;;23.17;;
30378;SDS011;17168;49.164;9.060;2022-07-21T03:45:03;27.15;;;21.95;;
30378;SDS011;17168;49.164;9.060;2022-07-21T03:47:31;26.20;;;21.98;;
30378;SDS011;17168;49.164;9.060;2022-07-21T03:49:58;28.48;;;23.42;;
30378;SDS011;17168;49.164;9.060;2022-07-21T03:52:26;24.90;;;21.25;;
30378;SDS011;17168;49.164;9.060;2022-07-21T03:54:53;26.13;;;22.38;;
30378;SDS011;17168;49.164;9.060;2022-07-21T03:57:40;25.83;;;21.70;;
30378;SDS011;17168;49.164;9.060;2022-07-21T04:00:10;30.33;;;23.33;;
30378;SDS011;17168;49.164;9.060;2022-07-21T04:02:40;29.23;;;23.17;;
30378;SDS011;17168;49.164;9.060;2022-07-21T04:05:10;34.55;;;22.92;;
30378;SDS011;17168;49.164;9.060;2022-07-21T04:07:40;27.25;;;21.95;;
30378;SDS011;17168;49.164;9.060;2022-07-21T04:10:09;28.80;;;23.60;;
30378;SDS011;17168;49.164;9.060;2022-07-21T04:12:38;30.42;;;25.20;;
30378;SDS011;17168;49.164;9.060;2022-07-21T04:15:06;30.02;;;24.98;;
30378;SDS011;17168;49.164;9.060;2022-07-21T04:17:34;32.13;;;25.42;;
30378;SDS011;17168;49.164;9.060;2022-07-21T04:20:01;43.30;;;27.08;;
30378;SDS011;17168;49.164;9.060;2022-07-21T04:22:29;31.58;;;26.17;;
30378;SDS011;17168;49.164;9.060;2022-07-21T04:24:57;29.00;;;25.42;;
30378;SDS011;17168;49.164;9.060;2022-07-21T04:27:25;32.72;;;26.65;;
30378;SDS011;17168;49.164;9.060;2022-07-21T04:29:52;34.83;;;28.50;;
30378;SDS011;17168;49.164;9.060;2022-07-21T04:32:20;32.50;;;26.92;;
30378;SDS011;17168;49.164;9.060;2022-07-21T04:34:47;29.67;;;25.98;;
30378;SDS011;17168;49.164;9.060;2022-07-21T04:37:13;31.10;;;26.17;;
30378;SDS011;17168;49.164;9.060;2022-07-21T04:39:41;35.65;;;26.20;;
30378;SDS011;17168;49.164;9.060;2022-07-21T04:42:09;35.13;;;26.95;;
30378;SDS011;17168;49.164;9.060;2022-07-21T04:44:35;30.33;;;26.27;;
30378;SDS011;17168;49.164;9.060;2022-07-21T04:47:03;33.15;;;29.25;;
30378;SDS011;17168;49.164;9.060;2022-07-21T04:49:30;30.05;;;26.83;;
30378;SDS011;17168;49.164;9.060;2022-07-21T04:51:57;32.67;;;26.92;;
30378;SDS011;17168;49.164;9.060;2022-07-21T04:54:30;31.52;;;25.15;;
30378;SDS011;17168;49.164;9.060;2022-07-21T04:56:57;30.05;;;24.45;;
30378;SDS011;17168;49.164;9.060;2022-07-21T04:59:27;29.15;;;24.85;;
30378;SDS011;17168;49.164;9.060;2022-07-21T05:01:53;33.17;;;26.63;;
30378;SDS011;17168;49.164;9.060;2022-07-21T05:04:20;31.50;;;27.77;;
30378;SDS011;17168;49.164;9.060;2022-07-21T05:06:47;35.58;;;29.08;;
30378;SDS011;17168;49.164;9.060;2022-07-21T05:09:14;30.98;;;27.45;;
30378;SDS011;17168;49.164;9.060;2022-07-21T05:11:41;30.63;;;27.33;;
30378;SDS011;17168;49.164;9.060;2022-07-21T05:14:08;36.25;;;28.63;;
30378;SDS011;17168;49.164;9.060;2022-07-21T05:16:42;29.38;;;25.15;;
30378;SDS011;17168;49.164;9.060;2022-07-21T05:19:09;35.45;;;26.73;;
30378;SDS011;17168;49.164;9.060;2022-07-21T05:21:36;30.25;;;25.73;;
30378;SDS011;17168;49.164;9.060;2022-07-21T05:24:03;31.10;;;26.30;;
30378;SDS011;17168;49.164;9.060;2022-07-21T05:26:30;28.20;;;24.92;;
30378;SDS011;17168;49.164;9.060;2022-07-21T05:28:57;36.50;;;24.55;;
30378;SDS011;17168;49.164;9.060;2022-07-21T05:31:23;28.17;;;23.73;;
30378;SDS011;17168;49.164;9.060;2022-07-21T05:33:52;32.08;;;24.63;;
30378;SDS011;17168;49.164;9.060;2022-07-21T05:36:19;28.70;;;23.48;;
30378;SDS011;17168;49.164;9.060;2022-07-21T05:38:46;25.70;;;23.05;;
30378;SDS011;17168;49.164;9.060;2022-07-21T05:41:13;38.05;;;24.30;;
30378;SDS011;17168;49.164;9.060;2022-07-21T05:43:40;27.55;;;24.58;;
30378;SDS011;17168;49.164;9.060;2022-07-21T05:46:07;25.63;;;22.50;;
30378;SDS011;17168;49.164;9.060;2022-07-21T05:48:34;27.45;;;21.80;;
30378;SDS011;17168;49.164;9.060;2022-07-21T05:51:02;26.50;;;22.35;;
30378;SDS011;17168;49.164;9.060;2022-07-21T05:53:29;25.02;;;22.50;;
30378;SDS011;17168;49.164;9.060;2022-07-21T05:55:56;24.75;;;21.40;;
30378;SDS011;17168;49.164;9.060;2022-07-21T05:58:23;28.90;;;22.52;;
30378;SDS011;17168;49.164;9.060;2022-07-21T06:00:52;27.45;;;22.40;;
30378;SDS011;17168;49.164;9.060;2022-07-21T06:03:35;27.40;;;22.98;;
30378;SDS011;17168;49.164;9.060;2022-07-21T06:06:03;29.85;;;24.45;;
30378;SDS011;17168;49.164;9.060;2022-07-21T06:08:31;29.98;;;23.52;;
30378;SDS011;17168;49.164;9.060;2022-07-21T06:10:58;27.98;;;23.45;;
30378;SDS011;17168;49.164;9.060;2022-07-21T06:13:25;24.10;;;21.05;;
30378;SDS011;17168;49.164;9.060;2022-07-21T06:15:52;24.20;;;21.20;;
30378;SDS011;17168;49.164;9.060;2022-07-21T06:18:19;25.52;;;19.73;;
30378;SDS011;17168;49.164;9.060;2022-07-21T06:20:48;24.80;;;19.38;;
30378;SDS011;17168;49.164;9.060;2022-07-21T06:23:16;20.48;;;17.40;;
30378;SDS011;17168;49.164;9.060;2022-07-21T06:25:43;19.95;;;17.27;;
30378;SDS011;17168;49.164;9.060;2022-07-21T06:28:10;23.08;;;17.15;;
30378;SDS011;17168;49.164;9.060;2022-07-21T06:30:38;22.15;;;17.15;;
30378;SDS011;17168;49.164;9.060;2022-07-21T06:33:05;18.83;;;15.23;;
30378;SDS011;17168;49.164;9.060;2022-07-21T06:35:32;15.88;;;14.18;;
30378;SDS011;17168;49.164;9.060;2022-07-21T06:37:59;17.70;;;15.82;;
30378;SDS011;17168;49.164;9.060;2022-07-21T06:40:28;15.82;;;13.93;;
30378;SDS011;17168;49.164;9.060;2022-07-21T06:42:55;17.85;;;15.93;;
30378;SDS011;17168;49.164;9.060;2022-07-21T06:45:42;19.25;;;15.15;;
30378;SDS011;17168;49.164;9.060;2022-07-21T06:48:09;16.73;;;15.05;;
30378;SDS011;17168;49.164;9.060;2022-07-21T06:50:36;21.85;;;16.40;;
30378;SDS011;17168;49.164;9.060;2022-07-21T06:53:03;21.63;;;15.85;;
30378;SDS011;17168;49.164;9.060;2022-07-21T06:55:32;15.85;;;14.13;;
30378;SDS011;17168;49.164;9.060;2022-07-21T06:58:08;19.92;;;15.05;;
30378;SDS011;17168;49.164;9.060;2022-07-21T07:00:35;17.35;;;14.20;;
30378;SDS011;17168;49.164;9.060;2022-07-21T07:03:05;20.75;;;15.55;;
30378;SDS011;17168;49.164;9.060;2022-07-21T07:05:33;19.77;;;13.98;;
30378;SDS011;17168;49.164;9.060;2022-07-21T07:08:00;15.80;;;13.45;;
30378;SDS011;17168;49.164;9.060;2022-07-21T07:10:28;17.67;;;13.68;;
30378;SDS011;17168;49.164;9.060;2022-07-21T07:12:56;17.77;;;13.13;;
30378;SDS011;17168;49.164;9.060;2022-07-21T07:15:43;14.40;;;12.48;;
30378;SDS011;17168;49.164;9.060;2022-07-21T07:18:10;15.65;;;12.75;;
30378;SDS011;17168;49.164;9.060;2022-07-21T07:20:37;16.77;;;13.07;;
30378;SDS011;17168;49.164;9.060;2022-07-21T07:23:04;13.88;;;11.95;;
30378;SDS011;17168;49.164;9.060;2022-07-21T07:25:32;15.75;;;12.13;;
30378;SDS011;17168;49.164;9.060;2022-07-21T07:28:00;12.20;;;10.38;;
30378;SDS011;17168;49.164;9.060;2022-07-21T07:30:28;12.25;;;11.00;;
30378;SDS011;17168;49.164;9.060;2022-07-21T07:32:55;14.98;;;10.52;;
30378;SDS011;17168;49.164;9.060;2022-07-21T07:35:22;15.52;;;11.40;;
30378;SDS011;17168;49.164;9.060;2022-07-21T07:37:49;12.52;;;9.80;;
30378;SDS011;17168;49.164;9.060;2022-07-21T07:40:16;12.10;;;9.80;;
30378;SDS011;17168;49.164;9.060;2022-07-21T07:42:45;13.63;;;10.38;;
30378;SDS011;17168;49.164;9.060;2022-07-21T07:45:14;11.30;;;9.65;;
30378;SDS011;17168;49.164;9.060;2022-07-21T07:47:42;12.40;;;9.80;;
30378;SDS011;17168;49.164;9.060;2022-07-21T07:50:10;12.05;;;9.45;;
30378;SDS011;17168;49.164;9.060;2022-07-21T07:52:40;12.13;;;9.63;;
30378;SDS011;17168;49.164;9.060;2022-07-21T07:55:09;11.07;;;8.52;;
30378;SDS011;17168;49.164;9.060;2022-07-21T07:57:37;12.10;;;8.60;;
30378;SDS011;17168;49.164;9.060;2022-07-21T08:00:05;12.25;;;9.00;;
30378;SDS011;17168;49.164;9.060;2022-07-21T08:02:55;11.10;;;9.55;;
30378;SDS011;17168;49.164;9.060;2022-07-21T08:05:22;11.45;;;8.65;;
30378;SDS011;17168;49.164;9.060;2022-07-21T08:07:49;12.38;;;8.43;;
30378;SDS011;17168;49.164;9.060;2022-07-21T08:10:16;15.05;;;8.75;;
30378;SDS011;17168;49.164;9.060;2022-07-21T08:13:03;14.77;;;8.38;;
30378;SDS011;17168;49.164;9.060;2022-07-21T08:15:33;11.75;;;8.52;;
30378;SDS011;17168;49.164;9.060;2022-07-21T08:18:01;12.23;;;8.65;;
30378;SDS011;17168;49.164;9.060;2022-07-21T08:20:29;10.43;;;8.05;;
30378;SDS011;17168;49.164;9.060;2022-07-21T08:22:56;12.63;;;8.50;;
30378;SDS011;17168;49.164;9.060;2022-07-21T08:25:22;13.18;;;8.57;;
30378;SDS011;17168;49.164;9.060;2022-07-21T08:27:49;10.32;;;7.97;;
30378;SDS011;17168;49.164;9.060;2022-07-21T08:30:16;26.90;;;10.38;;
30378;SDS011;17168;49.164;9.060;2022-07-21T08:32:43;11.82;;;9.10;;
30378;SDS011;17168;49.164;9.060;2022-07-21T08:35:11;11.15;;;9.23;;
30378;SDS011;17168;49.164;9.060;2022-07-21T08:37:39;15.57;;;8.88;;
30378;SDS011;17168;49.164;9.060;2022-07-21T08:40:07;15.10;;;9.45;;
30378;SDS011;17168;49.164;9.060;2022-07-21T08:42:35;14.70;;;8.73;;
30378;SDS011;17168;49.164;9.060;2022-07-21T08:45:03;12.63;;;8.38;;
30378;SDS011;17168;49.164;9.060;2022-07-21T08:47:31;14.18;;;9.65;;
30378;SDS011;17168;49.164;9.060;2022-07-21T08:49:58;12.18;;;8.50;;
30378;SDS011;17168;49.164;9.060;2022-07-21T08:52:27;10.25;;;8.57;;
30378;SDS011;17168;49.164;9.060;2022-07-21T08:54:54;12.75;;;7.65;;
30378;SDS011;17168;49.164;9.060;2022-07-21T08:57:22;9.48;;;7.55;;
30378;SDS011;17168;49.164;9.060;2022-07-21T08:59:49;12.77;;;8.13;;
30378;SDS011;17168;49.164;9.060;2022-07-21T09:02:26;11.65;;;7.50;;
30378;SDS011;17168;49.164;9.060;2022-07-21T09:04:54;11.90;;;8.35;;
30378;SDS011;17168;49.164;9.060;2022-07-21T09:07:21;9.82;;;7.25;;
30378;SDS011;17168;49.164;9.060;2022-07-21T09:09:57;8.95;;;6.75;;
30378;SDS011;17168;49.164;9.060;2022-07-21T09:12:26;11.30;;;7.65;;
30378;SDS011;17168;49.164;9.060;2022-07-21T09:14:57;9.07;;;6.30;;
30378;SDS011;17168;49.164;9.060;2022-07-21T09:17:38;11.32;;;7.05;;
30378;SDS011;17168;49.164;9.060;2022-07-21T09:20:25;7.68;;;6.20;;
30378;SDS011;17168;49.164;9.060;2022-07-21T09:23:02;8.00;;;6.28;;
30378;SDS011;17168;49.164;9.060;2022-07-21T09:25:34;8.80;;;5.40;;
30378;SDS011;17168;49.164;9.060;2022-07-21T09:28:12;6.43;;;4.88;;
30378;SDS011;17168;49.164;9.060;2022-07-21T09:33:31;8.25;;;4.68;;
30378;SDS011;17168;49.164;9.060;2022-07-21T09:36:03;7.78;;;4.85;;
30378;SDS011;17168;49.164;9.060;2022-07-21T09:38:34;7.03;;;4.88;;
30378;SDS011;17168;49.164;9.060;2022-07-21T09:41:05;9.15;;;4.70;;
30378;SDS011;17168;49.164;9.060;2022-07-21T09:43:36;9.35;;;4.25;;
30378;SDS011;17168;49.164;9.060;2022-07-21T09:46:09;6.38;;;4.50;;
30378;SDS011;17168;49.164;9.060;2022-07-21T09:48:38;5.50;;;4.28;;
30378;SDS011;17168;49.164;9.060;2022-07-21T09:51:19;5.38;;;4.10;;
30378;SDS011;17168;49.164;9.060;2022-07-21T09:53:55;5.22;;;4.60;;
30378;SDS011;17168;49.164;9.060;2022-07-21T09:56:26;6.90;;;4.95;;
30378;SDS011;17168;49.164;9.060;2022-07-21T09:58:57;6.20;;;4.65;;
30378;SDS011;17168;49.164;9.060;2022-07-21T10:01:25;5.72;;;4.60;;
30378;SDS011;17168;49.164;9.060;2022-07-21T10:03:54;7.03;;;4.65;;
30378;SDS011;17168;49.164;9.060;2022-07-21T10:06:23;6.18;;;4.65;;
30378;SDS011;17168;49.164;9.060;2022-07-21T10:08:52;7.80;;;4.90;;
30378;SDS011;17168;49.164;9.060;2022-07-21T10:11:22;7.72;;;4.85;;
30378;SDS011;17168;49.164;9.060;2022-07-21T10:13:56;8.23;;;4.97;;
30378;SDS011;17168;49.164;9.060;2022-07-21T10:16:23;7.65;;;5.18;;
30378;SDS011;17168;49.164;9.060;2022-07-21T10:18:53;6.93;;;4.72;;
30378;SDS011;17168;49.164;9.060;2022-07-21T10:21:26;9.18;;;4.97;;
30378;SDS011;17168;49.164;9.060;2022-07-21T10:24:01;8.25;;;4.68;;
30378;SDS011;17168;49.164;9.060;2022-07-21T10:26:28;7.07;;;4.90;;
30378;SDS011;17168;49.164;9.060;2022-07-21T10:28:56;6.43;;;4.88;;
30378;SDS011;17168;49.164;9.060;2022-07-21T10:31:23;8.02;;;5.22;;
30378;SDS011;17168;49.164;9.060;2022-07-21T10:33:57;7.07;;;5.28;;
30378;SDS011;17168;49.164;9.060;2022-07-21T10:36:45;7.88;;;4.82;;
30378;SDS011;17168;49.164;9.060;2022-07-21T10:41:57;6.35;;;4.80;;
30378;SDS011;17168;49.164;9.060;2022-07-21T10:44:39;6.10;;;5.03;;
30378;SDS011;17168;49.164;9.060;2022-07-21T10:47:11;6.70;;;5.18;;
30378;SDS011;17168;49.164;9.060;2022-07-21T10:49:46;8.10;;;4.70;;
30378;SDS011;17168;49.164;9.060;2022-07-21T10:55:22;7.22;;;4.90;;
30378;SDS011;17168;49.164;9.060;2022-07-21T11:00:45;9.13;;;4.95;;
30378;SDS011;17168;49.164;9.060;2022-07-21T11:03:20;5.72;;;4.80;;
30378;SDS011;17168;49.164;9.060;2022-07-21T11:09:05;11.85;;;5.22;;
30378;SDS011;17168;49.164;9.060;2022-07-21T11:11:34;6.93;;;4.60;;
30378;SDS011;17168;49.164;9.060;2022-07-21T11:14:03;6.47;;;4.80;;
30378;SDS011;17168;49.164;9.060;2022-07-21T11:19:29;9.50;;;4.80;;
30378;SDS011;17168;49.164;9.060;2022-07-21T11:21:58;6.50;;;4.95;;
30378;SDS011;17168;49.164;9.060;2022-07-21T11:24:27;8.57;;;5.32;;
30378;SDS011;17168;49.164;9.060;2022-07-21T11:26:54;6.25;;;4.63;;
30378;SDS011;17168;49.164;9.060;2022-07-21T11:29:21;8.10;;;5.57;;
30378;SDS011;17168;49.164;9.060;2022-07-21T11:31:49;7.47;;;5.50;;
30378;SDS011;17168;49.164;9.060;2022-07-21T11:34:18;8.70;;;4.90;;
30378;SDS011;17168;49.164;9.060;2022-07-21T11:36:46;6.65;;;4.53;;
30378;SDS011;17168;49.164;9.060;2022-07-21T11:39:30;5.47;;;4.43;;
30378;SDS011;17168;49.164;9.060;2022-07-21T11:42:01;5.68;;;4.43;;
30378;SDS011;17168;49.164;9.060;2022-07-21T11:44:29;8.98;;;4.80;;
30378;SDS011;17168;49.164;9.060;2022-07-21T11:46:56;7.82;;;4.97;;
30378;SDS011;17168;49.164;9.060;2022-07-21T11:49:27;8.60;;;4.47;;
30378;SDS011;17168;49.164;9.060;2022-07-21T11:51:56;10.50;;;4.38;;
30378;SDS011;17168;49.164;9.060;2022-07-21T11:54:28;4.85;;;3.85;;
30378;SDS011;17168;49.164;9.060;2022-07-21T11:56:58;8.57;;;3.90;;
30378;SDS011;17168;49.164;9.060;2022-07-21T11:59:27;5.20;;;4.10;;
30378;SDS011;17168;49.164;9.060;2022-07-21T12:01:56;6.10;;;4.22;;
30378;SDS011;17168;49.164;9.060;2022-07-21T12:07:18;5.07;;;4.00;;
30378;SDS011;17168;49.164;9.060;2022-07-21T12:09:47;7.57;;;3.65;;
30378;SDS011;17168;49.164;9.060;2022-07-21T12:12:30;7.05;;;4.50;;
30378;SDS011;17168;49.164;9.060;2022-07-21T12:15:09;6.38;;;3.88;;
30378;SDS011;17168;49.164;9.060;2022-07-21T12:17:42;4.55;;;3.97;;
30378;SDS011;17168;49.164;9.060;2022-07-21T12:20:25;5.90;;;4.35;;
30378;SDS011;17168;49.164;9.060;2022-07-21T12:22:53;9.23;;;4.18;;
30378;SDS011;17168;49.164;9.060;2022-07-21T12:25:32;4.65;;;3.90;;
30378;SDS011;17168;49.164;9.060;2022-07-21T12:28:00;5.28;;;3.58;;
30378;SDS011;17168;49.164;9.060;2022-07-21T12:30:29;5.28;;;3.75;;
30378;SDS011;17168;49.164;9.060;2022-07-21T12:33:03;9.52;;;3.97;;
30378;SDS011;17168;49.164;9.060;2022-07-21T12:35:32;5.70;;;3.95;;
30378;SDS011;17168;49.164;9.060;2022-07-21T12:38:01;6.07;;;3.63;;
30378;SDS011;17168;49.164;9.060;2022-07-21T12:40:30;6.95;;;3.47;;
30378;SDS011;17168;49.164;9.060;2022-07-21T12:43:03;6.30;;;3.67;;
30378;SDS011;17168;49.164;9.060;2022-07-21T12:45:43;8.15;;;3.92;;
30378;SDS011;17168;49.164;9.060;2022-07-21T12:48:12;8.18;;;3.97;;
30378;SDS011;17168;49.164;9.060;2022-07-21T12:50:41;4.53;;;3.80;;
30378;SDS011;17168;49.164;9.060;2022-07-21T12:53:10;7.03;;;3.83;;
30378;SDS011;17168;49.164;9.060;2022-07-21T12:55:38;6.53;;;3.80;;
30378;SDS011;17168;49.164;9.060;2022-07-21T12:58:05;5.53;;;3.70;;
30378;SDS011;17168;49.164;9.060;2022-07-21T13:00:33;6.30;;;4.13;;
30378;SDS011;17168;49.164;9.060;2022-07-21T13:03:00;6.90;;;3.92;;
30378;SDS011;17168;49.164;9.060;2022-07-21T13:05:27;14.52;;;4.13;;
30378;SDS011;17168;49.164;9.060;2022-07-21T13:07:55;17.48;;;5.00;;
30378;SDS011;17168;49.164;9.060;2022-07-21T13:10:22;5.85;;;3.72;;
30378;SDS011;17168;49.164;9.060;2022-07-21T13:12:50;6.85;;;3.53;;
30378;SDS011;17168;49.164;9.060;2022-07-21T13:15:16;18.45;;;5.00;;
30378;SDS011;17168;49.164;9.060;2022-07-21T13:17:44;8.57;;;3.95;;
30378;SDS011;17168;49.164;9.060;2022-07-21T13:20:12;8.70;;;3.90;;
30378;SDS011;17168;49.164;9.060;2022-07-21T13:22:40;8.15;;;3.75;;
30378;SDS011;17168;49.164;9.060;2022-07-21T13:25:09;5.78;;;3.83;;
30378;SDS011;17168;49.164;9.060;2022-07-21T13:27:37;6.57;;;3.80;;
30378;SDS011;17168;49.164;9.060;2022-07-21T13:30:05;8.57;;;4.30;;
30378;SDS011;17168;49.164;9.060;2022-07-21T13:32:34;4.13;;;3.65;;
30378;SDS011;17168;49.164;9.060;2022-07-21T13:35:02;10.15;;;3.78;;
30378;SDS011;17168;49.164;9.060;2022-07-21T13:37:49;9.40;;;3.35;;
30378;SDS011;17168;49.164;9.060;2022-07-21T13:40:19;8.07;;;3.97;;
30378;SDS011;17168;49.164;9.060;2022-07-21T13:43:06;7.07;;;3.90;;
30378;SDS011;17168;49.164;9.060;2022-07-21T13:45:53;4.78;;;3.55;;
30378;SDS011;17168;49.164;9.060;2022-07-21T13:48:19;4.70;;;3.58;;
30378;SDS011;17168;49.164;9.060;2022-07-21T13:50:46;5.78;;;3.78;;
30378;SDS011;17168;49.164;9.060;2022-07-21T13:53:13;6.22;;;3.83;;
30378;SDS011;17168;49.164;9.060;2022-07-21T13:55:41;6.05;;;3.58;;
30378;SDS011;17168;49.164;9.060;2022-07-21T13:58:08;5.95;;;3.63;;
30378;SDS011;17168;49.164;9.060;2022-07-21T14:00:35;6.25;;;3.90;;
30378;SDS011;17168;49.164;9.060;2022-07-21T14:03:08;7.28;;;3.60;;
30378;SDS011;17168;49.164;9.060;2022-07-21T14:05:35;7.10;;;3.88;;
30378;SDS011;17168;49.164;9.060;2022-07-21T14:08:05;8.15;;;3.72;;
30378;SDS011;17168;49.164;9.060;2022-07-21T14:10:32;9.30;;;3.78;;
30378;SDS011;17168;49.164;9.060;2022-07-21T14:13:01;9.50;;;3.75;;
30378;SDS011;17168;49.164;9.060;2022-07-21T14:15:28;14.30;;;3.47;;
30378;SDS011;17168;49.164;9.060;2022-07-21T14:17:55;5.10;;;3.55;;
30378;SDS011;17168;49.164;9.060;2022-07-21T14:20:23;5.20;;;3.83;;
30378;SDS011;17168;49.164;9.060;2022-07-21T14:22:52;4.22;;;3.60;;
30378;SDS011;17168;49.164;9.060;2022-07-21T14:25:19;6.00;;;3.70;;
30378;SDS011;17168;49.164;9.060;2022-07-21T14:27:47;3.35;;;3.05;;
30378;SDS011;17168;49.164;9.060;2022-07-21T14:30:18;3.97;;;3.13;;
30378;SDS011;17168;49.164;9.060;2022-07-21T14:32:49;5.80;;;3.45;;
30378;SDS011;17168;49.164;9.060;2022-07-21T14:35:19;5.95;;;3.90;;
30378;SDS011;17168;49.164;9.060;2022-07-21T14:37:49;4.47;;;3.47;;
30378;SDS011;17168;49.164;9.060;2022-07-21T14:40:17;8.32;;;3.42;;
30378;SDS011;17168;49.164;9.060;2022-07-21T14:42:45;8.77;;;3.53;;
30378;SDS011;17168;49.164;9.060;2022-07-21T14:45:13;7.88;;;3.90;;
30378;SDS011;17168;49.164;9.060;2022-07-21T14:47:49;5.10;;;3.70;;
30378;SDS011;17168;49.164;9.060;2022-07-21T14:50:17;7.00;;;3.88;;
30378;SDS011;17168;49.164;9.060;2022-07-21T14:52:52;4.50;;;3.53;;
30378;SDS011;17168;49.164;9.060;2022-07-21T14:55:19;5.18;;;3.78;;
30378;SDS011;17168;49.164;9.060;2022-07-21T14:57:49;6.35;;;3.65;;
30378;SDS011;17168;49.164;9.060;2022-07-21T15:00:17;4.03;;;3.50;;
30378;SDS011;17168;49.164;9.060;2022-07-21T15:02:44;4.35;;;3.40;;
30378;SDS011;17168;49.164;9.060;2022-07-21T15:05:13;3.95;;;3.42;;
30378;SDS011;17168;49.164;9.060;2022-07-21T15:07:40;4.80;;;3.83;;
30378;SDS011;17168;49.164;9.060;2022-07-21T15:10:07;4.20;;;3.50;;